Time;durP1;ratioP1;P1;durP2;ratioP2;P2;SDS_P1;SDS_P2;PMS_P1;PMS_P2;Temp;Humidity;BMP_temperature;BMP_pressure;BME280_temperature;BME280_humidity;BME280_pressure;Samples;Min_cycle;Max_cycle;Signal;HPM_P1;HPM_P2
2022/06/30 00:00:39;;;;;;;5.90;5.30;;;22.20;99.90;;;;;;4992178;28;20207;-82
2022/06/30 00:03:05;;;;;;;7.43;5.30;;;22.00;99.90;;;;;;4993329;28;20206;-82
2022/06/30 00:05:31;;;;;;;6.23;5.50;;;21.90;99.90;;;;;;4991532;28;21530;-82
2022/06/30 00:07:56;;;;;;;6.27;5.17;;;21.80;99.90;;;;;;4992702;28;20191;-81
2022/06/30 00:10:22;;;;;;;5.20;4.70;;;21.80;99.90;;;;;;4992177;28;20351;-82
2022/06/30 00:12:48;;;;;;;6.57;4.50;;;21.90;99.90;;;;;;4994948;28;20179;-83
2022/06/30 00:15:13;;;;;;;6.10;4.90;;;21.90;99.90;;;;;;4996660;28;20184;-82
2022/06/30 00:17:39;;;;;;;7.13;4.57;;;22.00;99.90;;;;;;4998767;28;20210;-82
2022/06/30 00:20:05;;;;;;;8.03;4.70;;;22.00;99.90;;;;;;4996148;28;20202;-82
2022/06/30 00:22:31;;;;;;;6.77;4.80;;;22.10;99.90;;;;;;4995837;28;20763;-81
2022/06/30 00:24:56;;;;;;;5.30;4.17;;;22.10;99.90;;;;;;4995610;28;20569;-81
2022/06/30 00:27:22;;;;;;;8.20;4.87;;;22.10;99.90;;;;;;4995530;28;20183;-83
2022/06/30 00:29:48;;;;;;;5.43;4.30;;;22.10;99.90;;;;;;4995915;28;20214;-83
2022/06/30 00:32:13;;;;;;;10.93;4.40;;;22.10;99.90;;;;;;4997405;28;20269;-82
2022/06/30 00:34:39;;;;;;;5.63;4.27;;;22.10;99.90;;;;;;4996994;28;20194;-82
2022/06/30 00:37:05;;;;;;;11.03;4.80;;;22.10;99.90;;;;;;4997546;28;20194;-81
2022/06/30 00:39:30;;;;;;;10.90;5.77;;;22.00;99.90;;;;;;5010354;28;20301;-81
2022/06/30 00:41:56;;;;;;;5.07;4.67;;;22.00;99.90;;;;;;4994138;28;20234;-82
2022/06/30 00:44:22;;;;;;;5.80;5.23;;;21.90;99.90;;;;;;4995803;28;20275;-82
2022/06/30 00:46:48;;;;;;;7.10;4.80;;;21.80;99.90;;;;;;4991157;28;20221;-81
2022/06/30 00:49:17;;;;;;;7.83;4.50;;;21.80;99.90;;;;;;4995569;28;20454;-82
2022/06/30 00:51:43;;;;;;;7.23;5.60;;;21.70;99.90;;;;;;4994839;28;20497;-82
2022/06/30 00:54:10;;;;;;;12.50;5.13;;;21.70;99.90;;;;;;4993515;28;20521;-81
2022/06/30 00:56:41;;;;;;;10.70;5.37;;;21.70;99.90;;;;;;5010321;28;20439;-81
2022/06/30 00:59:08;;;;;;;5.73;4.83;;;21.70;99.90;;;;;;4997222;28;20804;-81
2022/06/30 01:01:36;;;;;;;7.77;5.80;;;21.70;99.90;;;;;;4997318;28;20451;-81
2022/06/30 01:04:03;;;;;;;12.93;5.97;;;21.70;99.90;;;;;;4995802;28;20962;-81
2022/06/30 01:06:29;;;;;;;6.50;5.17;;;21.60;99.90;;;;;;4993651;28;20438;-81
2022/06/30 01:08:55;;;;;;;5.70;5.17;;;21.60;99.90;;;;;;4996987;28;20472;-82
2022/06/30 01:14:05;;;;;;;15.63;5.20;;;21.50;99.90;;;;;;4999801;28;20499;-81
2022/06/30 01:16:30;;;;;;;7.80;5.30;;;21.50;99.90;;;;;;4997597;28;20437;-81
2022/06/30 01:18:56;;;;;;;10.70;5.90;;;21.40;99.90;;;;;;4997668;28;20193;-81
2022/06/30 01:21:26;;;;;;;7.73;5.77;;;21.40;99.90;;;;;;5001104;28;20210;-81
2022/06/30 01:23:52;;;;;;;13.03;5.83;;;21.40;99.90;;;;;;4995772;28;20210;-81
2022/06/30 01:26:17;;;;;;;8.20;5.77;;;21.30;99.90;;;;;;4993346;28;20481;-81
2022/06/30 01:28:43;;;;;;;10.40;6.63;;;21.20;99.90;;;;;;4996233;28;20183;-81
2022/06/30 01:31:08;;;;;;;10.30;6.20;;;21.00;99.90;;;;;;4992914;28;20226;-81
2022/06/30 01:33:35;;;;;;;10.07;5.73;;;21.00;99.90;;;;;;4996204;28;20674;-81
2022/06/30 01:36:01;;;;;;;17.63;6.17;;;20.90;99.90;;;;;;4996806;28;20261;-81
2022/06/30 01:38:26;;;;;;;6.17;5.57;;;20.80;99.90;;;;;;4995893;28;20435;-81
2022/06/30 01:40:52;;;;;;;10.33;6.80;;;20.80;99.90;;;;;;4994234;28;20224;-81
2022/06/30 01:43:17;;;;;;;10.70;6.10;;;20.80;99.90;;;;;;4995279;28;20206;-81
2022/06/30 01:45:43;;;;;;;11.70;6.13;;;20.80;99.90;;;;;;4992651;28;20248;-82
2022/06/30 01:48:09;;;;;;;8.40;6.33;;;20.80;99.90;;;;;;4996855;28;20671;-81
2022/06/30 01:50:35;;;;;;;11.80;6.20;;;20.80;99.90;;;;;;4996236;28;20718;-81
2022/06/30 01:53:03;;;;;;;13.50;6.00;;;20.80;99.90;;;;;;4992208;28;20530;-81
2022/06/30 01:55:29;;;;;;;10.13;5.80;;;20.80;99.90;;;;;;4993377;28;20449;-81
2022/06/30 01:57:55;;;;;;;6.43;5.80;;;20.80;99.90;;;;;;4992085;28;20445;-81
2022/06/30 02:00:24;;;;;;;9.07;5.90;;;20.80;99.90;;;;;;4994494;28;20733;-81
2022/06/30 02:02:50;;;;;;;9.17;6.43;;;20.70;99.90;;;;;;4992993;28;20948;-81
2022/06/30 02:05:16;;;;;;;7.97;6.23;;;20.60;99.90;;;;;;4995010;28;20441;-81
2022/06/30 02:07:43;;;;;;;12.77;6.27;;;20.50;99.90;;;;;;4990646;28;20517;-81
2022/06/30 02:10:16;;;;;;;8.73;7.47;;;20.40;99.90;;;;;;4994434;28;20459;-81
2022/06/30 02:12:45;;;;;;;12.17;6.63;;;20.30;99.90;;;;;;4991541;28;20429;-81
2022/06/30 02:15:13;;;;;;;10.23;6.70;;;20.30;99.90;;;;;;4992506;28;20486;-81
2022/06/30 02:17:39;;;;;;;11.33;6.93;;;20.30;99.90;;;;;;4991751;28;20473;-80
2022/06/30 02:20:07;;;;;;;15.53;7.20;;;20.30;99.90;;;;;;4996595;28;20875;-80
2022/06/30 02:22:34;;;;;;;9.93;7.33;;;20.30;99.90;;;;;;4992810;28;20429;-81
2022/06/30 02:25:00;;;;;;;8.33;7.53;;;20.30;99.90;;;;;;4994584;28;20481;-81
2022/06/30 02:27:25;;;;;;;13.90;8.53;;;20.30;99.90;;;;;;4993624;28;20843;-81
2022/06/30 02:29:54;;;;;;;12.70;8.10;;;20.30;99.90;;;;;;5005959;28;20209;-81
2022/06/30 02:32:21;;;;;;;9.50;7.50;;;20.10;99.90;;;;;;4990066;28;20232;-81
2022/06/30 02:34:51;;;;;;;9.30;7.70;;;20.00;1.00;;;;;;4994465;28;20445;-81
2022/06/30 02:37:17;;;;;;;17.93;7.70;;;20.00;1.00;;;;;;5009279;28;20447;-81
2022/06/30 02:39:43;;;;;;;10.50;7.10;;;20.00;1.00;;;;;;5005255;28;20464;-81
2022/06/30 02:42:09;;;;;;;11.87;7.50;;;20.00;1.00;;;;;;4997757;28;20443;-81
2022/06/30 02:44:34;;;;;;;9.27;7.20;;;20.00;1.00;;;;;;4991356;28;20211;-81
2022/06/30 02:47:00;;;;;;;12.90;7.63;;;20.00;1.00;;;;;;4995796;28;20485;-81
2022/06/30 02:49:26;;;;;;;13.43;7.83;;;20.00;1.00;;;;;;4993758;28;20223;-81
2022/06/30 02:51:51;;;;;;;7.97;7.10;;;19.90;1.00;;;;;;4994961;28;20476;-81
2022/06/30 02:54:17;;;;;;;11.27;6.20;;;19.80;1.00;;;;;;4996358;28;20246;-81
2022/06/30 02:56:43;;;;;;;15.33;7.33;;;19.80;1.00;;;;;;5007585;28;20261;-81
2022/06/30 02:59:08;;;;;;;15.17;6.70;;;19.70;1.00;;;;;;4997630;28;20236;-81
2022/06/30 03:01:34;;;;;;;12.03;6.33;;;19.70;1.00;;;;;;4995428;28;20636;-81
2022/06/30 03:04:03;;;;;;;9.17;6.47;;;19.70;1.00;;;;;;4990358;28;20206;-81
2022/06/30 03:06:33;;;;;;;8.50;6.43;;;19.70;1.00;;;;;;4994109;28;20525;-81
2022/06/30 03:08:59;;;;;;;8.73;6.00;;;19.70;1.00;;;;;;4991072;28;20470;-81
2022/06/30 03:11:25;;;;;;;9.50;6.30;;;19.70;1.00;;;;;;4996711;28;21041;-80
2022/06/30 03:13:51;;;;;;;18.00;7.50;;;19.70;1.00;;;;;;4994995;28;20437;-81
2022/06/30 03:16:17;;;;;;;16.60;7.43;;;19.70;1.00;;;;;;4996053;28;20539;-81
2022/06/30 03:18:43;;;;;;;15.37;7.60;;;19.70;1.00;;;;;;4994444;28;20232;-81
2022/06/30 03:21:09;;;;;;;15.33;7.70;;;19.70;1.00;;;;;;4991338;28;20288;-81
2022/06/30 03:23:34;;;;;;;12.03;6.70;;;19.70;1.00;;;;;;4992668;28;20498;-81
2022/06/30 03:26:01;;;;;;;18.77;6.97;;;19.70;45.80;;;;;;4994669;28;20187;-81
2022/06/30 03:28:26;;;;;;;12.30;7.73;;;19.70;71.30;;;;;;4992285;28;20185;-81
2022/06/30 03:30:52;;;;;;;10.63;7.30;;;19.70;93.20;;;;;;4993628;28;20896;-81
2022/06/30 03:33:18;;;;;;;12.23;7.30;;;19.70;93.50;;;;;;4995758;28;20716;-81
2022/06/30 03:35:45;;;;;;;9.80;6.60;;;19.70;91.10;;;;;;4992008;28;20444;-81
2022/06/30 03:38:11;;;;;;;11.87;7.63;;;19.60;88.50;;;;;;4995890;28;20431;-81
2022/06/30 03:40:37;;;;;;;16.83;7.63;;;19.60;76.80;;;;;;4995687;28;20453;-81
2022/06/30 03:43:02;;;;;;;20.50;6.67;;;19.50;93.00;;;;;;4992161;28;20500;-81
2022/06/30 03:45:28;;;;;;;7.53;6.70;;;19.50;99.90;;;;;;4986967;28;20182;-81
2022/06/30 03:47:54;;;;;;;10.00;6.63;;;19.50;99.90;;;;;;4994289;28;20178;-81
2022/06/30 03:50:20;;;;;;;8.33;6.50;;;19.50;99.90;;;;;;4992523;28;20212;-81
2022/06/30 03:52:46;;;;;;;15.57;7.77;;;19.50;99.90;;;;;;4994548;28;20177;-81
2022/06/30 03:55:11;;;;;;;12.10;7.10;;;19.50;99.90;;;;;;4989334;28;20225;-81
2022/06/30 03:57:37;;;;;;;8.83;6.63;;;19.40;99.90;;;;;;4991057;28;20438;-80
2022/06/30 04:00:04;;;;;;;9.20;7.20;;;19.50;99.90;;;;;;4993542;28;20345;-81
2022/06/30 04:02:30;;;;;;;13.60;8.10;;;19.50;99.90;;;;;;4994057;28;20503;-80
2022/06/30 04:04:56;;;;;;;9.50;8.13;;;19.50;99.90;;;;;;4986041;28;20875;-81
2022/06/30 04:07:21;;;;;;;11.90;8.00;;;19.40;99.90;;;;;;4990767;28;20237;-81
2022/06/30 04:09:47;;;;;;;10.70;8.23;;;19.40;99.90;;;;;;4993526;28;20196;-81
2022/06/30 04:12:12;;;;;;;18.13;9.13;;;19.40;99.90;;;;;;4991981;28;20194;-81
2022/06/30 04:14:38;;;;;;;16.10;8.67;;;19.50;99.90;;;;;;4992542;28;20263;-81
2022/06/30 04:17:04;;;;;;;17.27;8.40;;;19.50;99.90;;;;;;4996884;28;20181;-82
2022/06/30 04:19:30;;;;;;;13.00;7.80;;;19.60;99.90;;;;;;4994820;28;20211;-81
2022/06/30 04:21:56;;;;;;;17.10;7.93;;;19.70;99.90;;;;;;4998181;28;20206;-81
2022/06/30 04:24:21;;;;;;;11.30;8.20;;;19.70;99.90;;;;;;4995651;28;20463;-81
2022/06/30 04:26:47;;;;;;;18.40;9.17;;;19.80;99.90;;;;;;4986066;28;20177;-81
2022/06/30 04:29:12;;;;;;;12.10;8.57;;;19.90;99.90;;;;;;4992509;28;20262;-80
2022/06/30 04:34:22;;;;;;;15.43;7.33;;;19.90;99.90;;;;;;4993859;28;20188;-81
2022/06/30 04:36:48;;;;;;;10.80;7.87;;;20.00;99.90;;;;;;5004444;28;20837;-82
2022/06/30 04:39:13;;;;;;;9.90;7.37;;;20.10;99.90;;;;;;4997408;28;20177;-81
2022/06/30 04:41:39;;;;;;;12.40;8.20;;;20.10;99.90;;;;;;4996916;28;20202;-81
2022/06/30 04:44:05;;;;;;;16.43;7.77;;;20.20;70.00;;;;;;4992202;28;20202;-81
2022/06/30 04:46:31;;;;;;;10.40;7.17;;;20.20;8.40;;;;;;4993478;28;20186;-81
2022/06/30 04:48:57;;;;;;;15.43;7.83;;;20.30;1.00;;;;;;4997139;28;20434;-81
2022/06/30 04:51:23;;;;;;;7.90;7.10;;;20.40;1.00;;;;;;4997630;28;20453;-81
2022/06/30 04:53:49;;;;;;;11.80;6.30;;;20.50;1.00;;;;;;4985496;28;20428;-81
2022/06/30 04:56:15;;;;;;;15.10;7.37;;;20.50;1.00;;;;;;4991842;28;20556;-81
2022/06/30 04:58:42;;;;;;;15.70;7.13;;;20.60;1.00;;;;;;4997552;28;20438;-81
2022/06/30 05:01:07;;;;;;;15.23;7.10;;;20.70;1.00;;;;;;4997811;28;20539;-82
2022/06/30 05:03:33;;;;;;;12.83;7.27;;;20.80;1.00;;;;;;5000667;28;20563;-81
2022/06/30 05:05:59;;;;;;;12.93;8.00;;;20.90;1.00;;;;;;4993495;28;20214;-81
2022/06/30 05:08:25;;;;;;;11.17;7.17;;;20.90;1.00;;;;;;5001439;28;20220;-82
2022/06/30 05:10:51;;;;;;;14.30;7.10;;;21.00;1.00;;;;;;5001448;28;21025;-81
2022/06/30 05:13:17;;;;;;;18.77;7.33;;;21.00;1.00;;;;;;5005075;28;20432;-82
2022/06/30 05:15:45;;;;;;;9.57;7.50;;;21.10;1.00;;;;;;5001049;28;20190;-83
2022/06/30 05:18:10;;;;;;;10.80;7.20;;;21.20;1.00;;;;;;4999489;28;20186;-81
2022/06/30 05:20:36;;;;;;;14.90;7.30;;;21.30;1.00;;;;;;4998555;28;20500;-82
2022/06/30 05:23:02;;;;;;;24.30;7.87;;;21.40;1.00;;;;;;4998599;28;20864;-82
2022/06/30 05:28:12;;;;;;;10.97;7.20;;;21.50;1.00;;;;;;4997582;28;20425;-81
2022/06/30 05:30:39;;;;;;;11.10;7.27;;;21.60;1.00;;;;;;4997861;28;20517;-81
2022/06/30 05:33:04;;;;;;;9.30;6.97;;;21.70;1.00;;;;;;4997461;28;20185;-81
2022/06/30 05:35:30;;;;;;;14.60;7.27;;;21.70;1.00;;;;;;4994808;28;20438;-82
2022/06/30 05:37:56;;;;;;;8.97;6.10;;;21.80;1.00;;;;;;4993653;28;20179;-82
2022/06/30 05:40:21;;;;;;;21.47;7.37;;;22.00;1.00;;;;;;4996557;28;20216;-82
2022/06/30 05:42:47;;;;;;;9.90;6.77;;;22.00;1.00;;;;;;4996550;28;20268;-82
2022/06/30 05:45:13;;;;;;;6.93;5.73;;;22.10;1.00;;;;;;4992097;28;20183;-82
2022/06/30 05:47:52;;;;;;;15.10;5.70;;;22.20;1.00;;;;;;4994336;28;20185;-82
2022/06/30 05:50:20;;;;;;;7.30;6.57;;;22.40;1.00;;;;;;4989392;28;20229;-82
2022/06/30 05:52:46;;;;;;;8.67;5.87;;;22.50;1.00;;;;;;4995847;28;20438;-82
2022/06/30 05:55:13;;;;;;;11.67;5.47;;;22.60;1.00;;;;;;4991444;28;20440;-82
2022/06/30 05:58:01;;;;;;;13.17;5.13;;;22.70;99.90;;;;;;4991595;28;20470;-82
2022/06/30 06:00:27;;;;;;;6.53;4.93;;;22.90;99.90;;;;;;5009222;28;20465;-82
2022/06/30 06:02:53;;;;;;;7.33;4.97;;;23.00;99.90;;;;;;4994433;28;20436;-82
2022/06/30 06:05:19;;;;;;;7.07;4.20;;;23.10;99.90;;;;;;4990326;28;20445;-82
2022/06/30 06:07:45;;;;;;;5.30;4.70;;;23.30;99.90;;;;;;4993814;28;20457;-82
2022/06/30 06:10:13;;;;;;;7.93;4.77;;;23.40;99.90;;;;;;4994041;28;20473;-82
2022/06/30 06:12:39;;;;;;;9.10;5.07;;;23.80;99.90;;;;;;4985513;28;20220;-82
2022/06/30 06:15:05;;;;;;;12.03;4.40;;;24.30;99.90;;;;;;4987553;28;20452;-82
2022/06/30 06:17:31;;;;;;;4.03;3.20;;;25.40;99.90;;;;;;4994920;28;20437;-82
2022/06/30 06:19:57;;;;;;;6.13;3.83;;;28.00;99.90;;;;;;4989655;28;20885;-83
2022/06/30 06:22:23;;;;;;;5.13;3.20;;;32.40;99.90;;;;;;4998659;28;20434;-83
2022/06/30 06:24:49;;;;;;;4.50;3.13;;;36.20;99.90;;;;;;4997628;28;20234;-81
2022/06/30 06:27:14;;;;;;;5.87;3.20;;;38.90;99.90;;;;;;4995390;28;20718;-82
2022/06/30 06:29:40;;;;;;;6.20;3.63;;;41.20;99.90;;;;;;4995591;28;20204;-81
2022/06/30 06:32:06;;;;;;;5.73;3.47;;;43.20;99.90;;;;;;4999412;28;20184;-82
2022/06/30 06:34:31;;;;;;;3.90;3.20;;;44.60;99.90;;;;;;4995910;28;20187;-82
2022/06/30 06:36:57;;;;;;;6.73;3.03;;;46.00;99.90;;;;;;4999154;28;20559;-82
2022/06/30 06:39:22;;;;;;;8.87;4.27;;;47.20;99.90;;;;;;4996438;28;20205;-82
2022/06/30 06:41:48;;;;;;;5.53;2.80;;;48.20;99.90;;;;;;4993968;28;20196;-82
2022/06/30 06:44:13;;;;;;;7.50;2.87;;;48.70;99.90;;;;;;4993582;28;20218;-82
2022/06/30 06:46:39;;;;;;;9.23;2.97;;;49.60;99.90;;;;;;4995251;28;20246;-82
2022/06/30 06:49:09;;;;;;;8.97;2.60;;;50.50;99.90;;;;;;4992426;28;20191;-82
2022/06/30 06:51:35;;;;;;;4.13;2.17;;;51.20;99.90;;;;;;4992677;28;20198;-83
2022/06/30 06:54:01;;;;;;;3.33;2.40;;;51.80;99.90;;;;;;4992312;28;20187;-83
2022/06/30 06:56:27;;;;;;;6.30;2.30;;;52.30;98.20;;;;;;5031506;23;20241;-85
2022/06/30 06:58:53;;;;;;;4.40;2.80;;;52.70;95.20;;;;;;5008755;28;20194;-86
2022/06/30 07:01:19;;;;;;;2.28;2.03;;;53.30;92.80;;;;;;4989710;28;20629;-85
2022/06/30 07:03:44;;;;;;;3.95;2.58;;;54.00;91.40;;;;;;5008585;28;20307;-86
2022/06/30 07:06:10;;;;;;;3.92;2.30;;;54.50;87.60;;;;;;5009156;28;20677;-86
2022/06/30 07:08:35;;;;;;;7.80;2.70;;;54.40;82.20;;;;;;5010067;28;20524;-85
2022/06/30 07:11:03;;;;;;;4.22;2.40;;;54.40;76.10;;;;;;5008035;28;20210;-86
2022/06/30 07:13:29;;;;;;;5.88;2.78;;;54.30;70.80;;;;;;4992404;28;20191;-85
2022/06/30 07:15:55;;;;;;;5.60;2.55;;;54.50;67.60;;;;;;5023542;28;20241;-85
2022/06/30 07:18:21;;;;;;;6.53;2.88;;;54.40;64.60;;;;;;4992353;28;20206;-85
2022/06/30 07:20:47;;;;;;;4.55;2.28;;;54.20;60.20;;;;;;5006945;28;20214;-86
2022/06/30 07:23:12;;;;;;;7.40;3.25;;;54.20;57.60;;;;;;4992599;28;20297;-85
2022/06/30 07:25:38;;;;;;;6.93;2.78;;;54.20;56.50;;;;;;5007641;28;20280;-85
2022/06/30 07:28:04;;;;;;;5.13;2.97;;;54.40;55.80;;;;;;5008910;28;20207;-86
2022/06/30 07:30:30;;;;;;;4.13;2.53;;;54.60;53.80;;;;;;5007645;28;20615;-86
2022/06/30 07:32:56;;;;;;;6.90;2.60;;;54.70;53.10;;;;;;5008209;28;20186;-86
2022/06/30 07:35:21;;;;;;;42.60;4.03;;;54.50;51.10;;;;;;5008072;28;20234;-86
2022/06/30 07:37:47;;;;;;;5.80;2.70;;;54.60;49.80;;;;;;5008909;28;20775;-86
2022/06/30 07:40:14;;;;;;;5.80;2.75;;;54.40;48.90;;;;;;5008085;28;20662;-86
2022/06/30 07:42:40;;;;;;;5.88;2.75;;;54.60;48.50;;;;;;5009052;28;20178;-85
2022/06/30 07:45:06;;;;;;;5.53;2.72;;;54.70;47.60;;;;;;4987228;28;20720;-84
2022/06/30 07:47:32;;;;;;;6.43;3.05;;;54.90;47.80;;;;;;5007433;28;20542;-85
2022/06/30 07:49:58;;;;;;;10.15;3.25;;;54.80;47.00;;;;;;5010506;28;20204;-86
2022/06/30 07:52:24;;;;;;;6.13;2.73;;;54.40;45.80;;;;;;5010814;28;20338;-85
2022/06/30 07:54:51;;;;;;;3.33;2.50;;;54.20;44.70;;;;;;5007589;28;20190;-86
2022/06/30 07:57:20;;;;;;;11.33;4.17;;;54.10;43.90;;;;;;5010084;28;20218;-86
2022/06/30 07:59:46;;;;;;;8.43;2.70;;;53.70;43.20;;;;;;5006179;28;20544;-86
2022/06/30 08:02:12;;;;;;;7.73;3.07;;;53.50;41.40;;;;;;4992537;28;20194;-85
2022/06/30 08:04:38;;;;;;;5.57;3.27;;;53.90;42.80;;;;;;5015374;28;20299;-86
2022/06/30 08:07:04;;;;;;;8.40;3.50;;;54.00;43.00;;;;;;5008823;28;20194;-85
2022/06/30 08:09:31;;;;;;;8.40;4.20;;;54.00;42.00;;;;;;5009114;28;20186;-85
2022/06/30 08:11:56;;;;;;;5.70;3.13;;;54.30;43.80;;;;;;5008348;28;20214;-85
2022/06/30 08:14:23;;;;;;;5.15;3.65;;;54.70;44.20;;;;;;5008083;28;20677;-86
2022/06/30 08:16:49;;;;;;;9.53;4.00;;;54.70;44.40;;;;;;5007626;28;20721;-86
2022/06/30 08:19:16;;;;;;;6.00;4.10;;;54.20;42.50;;;;;;5007939;28;20194;-85
2022/06/30 08:21:42;;;;;;;7.37;3.90;;;54.40;43.20;;;;;;4990216;28;20317;-83
2022/06/30 08:24:08;;;;;;;8.77;4.90;;;54.70;44.20;;;;;;5009428;28;20198;-84
2022/06/30 08:26:34;;;;;;;9.40;5.13;;;53.80;41.20;;;;;;5023099;28;20206;-84
2022/06/30 08:29:00;;;;;;;10.40;4.67;;;53.10;39.70;;;;;;5007350;28;20910;-84
2022/06/30 08:31:27;;;;;;;9.57;4.90;;;53.30;40.80;;;;;;5004429;28;20182;-85
2022/06/30 08:33:54;;;;;;;7.07;5.30;;;53.10;39.80;;;;;;5005149;28;20684;-85
2022/06/30 08:36:22;;;;;;;7.97;5.37;;;52.80;39.20;;;;;;4996051;28;20254;-84
2022/06/30 08:38:47;;;;;;;8.23;5.00;;;52.00;37.60;;;;;;5012328;28;20441;-84
2022/06/30 08:43:59;;;;;;;10.30;4.83;;;51.50;37.10;;;;;;5013729;28;20233;-84
2022/06/30 08:46:26;;;;;;;6.17;4.50;;;50.80;36.30;;;;;;5014730;28;20460;-83
2022/06/30 08:48:52;;;;;;;6.23;4.40;;;50.40;36.30;;;;;;5013481;28;20524;-85
2022/06/30 08:51:20;;;;;;;13.67;4.70;;;50.10;36.30;;;;;;5011684;28;20444;-84
2022/06/30 08:53:53;;;;;;;5.20;3.10;;;49.60;35.20;;;;;;5013155;28;20520;-83
2022/06/30 08:56:20;;;;;;;13.00;3.83;;;49.30;34.40;;;;;;5007533;28;20477;-84
2022/06/30 08:58:49;;;;;;;7.43;4.20;;;48.80;34.10;;;;;;4994832;28;20461;-84
2022/06/30 09:01:14;;;;;;;7.03;4.67;;;48.60;34.50;;;;;;5013176;28;20434;-84
2022/06/30 09:03:40;;;;;;;5.70;4.00;;;48.60;34.30;;;;;;5009801;28;20464;-84
2022/06/30 09:06:05;;;;;;;6.13;4.00;;;48.70;34.70;;;;;;5011216;28;20226;-84
2022/06/30 09:08:31;;;;;;;6.33;3.97;;;49.00;36.40;;;;;;5012423;28;20182;-84
2022/06/30 09:10:57;;;;;;;6.97;4.20;;;49.20;36.80;;;;;;5011278;28;20217;-84
2022/06/30 09:13:24;;;;;;;9.70;4.23;;;49.30;37.50;;;;;;5013263;28;20183;-84
2022/06/30 09:15:50;;;;;;;6.03;3.63;;;49.40;38.90;;;;;;4991923;28;20213;-83
2022/06/30 09:18:27;;;;;;;4.87;3.40;;;49.30;38.40;;;;;;5010613;28;20441;-84
2022/06/30 09:20:54;;;;;;;5.30;4.07;;;49.30;38.40;;;;;;5011123;28;20429;-84
2022/06/30 09:23:30;;;;;;;10.13;4.13;;;49.40;38.70;;;;;;5012449;28;20465;-84
2022/06/30 09:26:01;;;;;;;8.50;3.70;;;49.60;38.60;;;;;;5011715;28;20459;-84
2022/06/30 09:28:54;;;;;;;5.43;3.53;;;49.80;39.70;;;;;;5007859;28;20496;-84
2022/06/30 09:31:39;;;;;;;5.23;3.80;;;49.80;40.00;;;;;;5012825;28;20433;-84
2022/06/30 09:34:19;;;;;;;7.67;3.97;;;49.30;38.60;;;;;;5011360;28;21006;-84
2022/06/30 09:36:54;;;;;;;8.47;4.10;;;49.40;38.80;;;;;;5008347;28;20453;-84
2022/06/30 09:39:21;;;;;;;7.27;3.97;;;48.70;37.00;;;;;;5016345;28;20435;-84
2022/06/30 09:41:48;;;;;;;15.43;4.47;;;48.40;37.20;;;;;;5013012;28;20433;-83
2022/06/30 09:44:16;;;;;;;10.80;3.27;;;48.10;36.70;;;;;;4993610;28;20472;-83
2022/06/30 09:47:03;;;;;;;5.87;3.23;;;47.70;35.40;;;;;;4985668;28;20447;-84
2022/06/30 09:49:36;;;;;;;7.23;3.93;;;46.90;34.10;;;;;;5010120;28;20437;-82
2022/06/30 09:52:20;;;;;;;8.57;3.37;;;46.40;34.30;;;;;;5010990;28;20952;-84
2022/06/30 09:55:06;;;;;;;9.13;4.63;;;46.70;36.30;;;;;;5013713;28;20479;-84
2022/06/30 09:57:42;;;;;;;7.70;3.87;;;46.40;36.90;;;;;;5013913;28;21032;-82
2022/06/30 10:00:08;;;;;;;10.60;4.10;;;46.00;36.00;;;;;;5012075;28;20477;-84
2022/06/30 10:02:39;;;;;;;9.97;5.00;;;45.50;35.80;;;;;;5010230;28;20465;-84
2022/06/30 10:05:07;;;;;;;10.43;3.50;;;45.80;37.20;;;;;;5012258;28;20630;-85
2022/06/30 10:07:35;;;;;;;6.40;3.47;;;46.40;39.60;;;;;;5010611;28;20438;-84
2022/06/30 10:10:04;;;;;;;10.60;3.40;;;47.30;42.40;;;;;;5011570;28;20424;-84
2022/06/30 10:12:30;;;;;;;6.60;2.67;;;47.80;43.00;;;;;;5011066;28;20495;-83
2022/06/30 10:14:56;;;;;;;6.30;3.63;;;48.20;43.70;;;;;;5009363;28;20487;-85
2022/06/30 10:17:25;;;;;;;5.03;3.30;;;48.20;44.50;;;;;;4994128;28;20274;-84
2022/06/30 10:19:52;;;;;;;7.60;3.20;;;48.20;42.60;;;;;;4994816;28;20814;-85
2022/06/30 10:22:19;;;;;;;9.00;4.93;;;48.20;42.80;;;;;;5012823;28;20433;-84
2022/06/30 10:24:46;;;;;;;3.60;2.60;;;47.90;40.90;;;;;;5010453;28;20469;-86
2022/06/30 10:27:12;;;;;;;5.73;3.20;;;47.50;40.40;;;;;;4995182;28;20441;-85
2022/06/30 10:29:42;;;;;;;8.43;3.73;;;47.00;38.00;;;;;;5012810;28;20444;-85
2022/06/30 10:32:30;;;;;;;5.27;2.60;;;46.70;37.70;;;;;;5011415;28;20919;-84
2022/06/30 10:35:08;;;;;;;3.40;2.30;;;46.50;36.60;;;;;;5011461;28;20429;-85
2022/06/30 10:38:15;;;;;;;8.00;3.10;;;46.50;36.60;;;;;;5009413;28;20445;-85
2022/06/30 10:40:59;;;;;;;12.60;5.13;;;46.50;37.00;;;;;;4983433;28;20437;-84
2022/06/30 10:43:25;;;;;;;7.20;2.90;;;46.20;37.20;;;;;;5009313;28;20472;-85
2022/06/30 10:46:01;;;;;;;7.20;2.60;;;46.10;37.30;;;;;;5011332;28;20453;-85
2022/06/30 10:48:47;;;;;;;6.40;3.27;;;46.50;38.70;;;;;;5007501;28;20437;-85
2022/06/30 10:51:16;;;;;;;7.80;3.87;;;46.50;38.60;;;;;;5009945;28;20438;-85
2022/06/30 10:53:42;;;;;;;6.77;3.50;;;44.90;34.30;;;;;;4998088;28;20491;-85
2022/06/30 10:56:08;;;;;;;8.57;3.50;;;43.30;32.90;;;;;;5010368;28;20537;-84
2022/06/30 10:58:34;;;;;;;6.30;3.40;;;42.20;32.10;;;;;;5012507;28;20184;-85
2022/06/30 11:01:10;;;;;;;4.83;3.20;;;41.40;32.40;;;;;;5015904;28;20442;-84
2022/06/30 11:03:37;;;;;;;7.37;3.10;;;41.50;35.20;;;;;;5010025;28;20206;-86
2022/06/30 11:06:09;;;;;;;8.17;4.00;;;42.10;37.20;;;;;;5007578;28;20527;-84
2022/06/30 11:08:47;;;;;;;4.70;3.17;;;42.90;40.70;;;;;;5008436;28;20434;-84
2022/06/30 11:11:22;;;;;;;4.50;3.03;;;43.40;41.60;;;;;;5009504;28;20431;-85
2022/06/30 11:13:53;;;;;;;8.57;2.97;;;43.80;42.60;;;;;;5010312;28;20437;-86
2022/06/30 11:16:19;;;;;;;9.70;2.20;;;44.30;42.20;;;;;;5010080;28;20881;-85
2022/06/30 11:18:46;;;;;;;7.23;2.47;;;44.90;43.60;;;;;;5007982;28;20460;-86
2022/06/30 11:21:12;;;;;;;6.77;2.50;;;45.30;43.30;;;;;;5011685;28;20508;-85
2022/06/30 11:23:46;;;;;;;4.83;2.20;;;45.10;42.70;;;;;;5010466;28;20490;-85
2022/06/30 11:29:03;;;;;;;5.40;3.10;;;45.60;43.20;;;;;;5008723;28;20444;-85
2022/06/30 11:31:35;;;;;;;6.13;2.87;;;45.70;42.50;;;;;;5016289;28;20425;-86
2022/06/30 11:34:10;;;;;;;6.40;2.40;;;45.80;42.90;;;;;;5023777;28;20437;-85
2022/06/30 11:36:38;;;;;;;5.60;2.67;;;46.10;42.60;;;;;;5011289;28;21029;-85
2022/06/30 11:39:04;;;;;;;5.83;2.73;;;46.00;42.70;;;;;;5009899;28;20484;-84
2022/06/30 11:44:16;;;;;;;5.90;2.53;;;46.30;41.70;;;;;;5008603;28;20793;-85
2022/06/30 11:46:53;;;;;;;6.03;2.70;;;46.50;42.10;;;;;;5011261;28;20575;-85
2022/06/30 11:49:20;;;;;;;8.00;3.20;;;46.60;42.00;;;;;;5011599;28;20836;-85
2022/06/30 11:51:46;;;;;;;4.30;2.50;;;46.30;41.10;;;;;;5012591;28;20425;-85
2022/06/30 11:54:13;;;;;;;5.70;3.13;;;46.00;41.00;;;;;;4989363;28;20436;-85
2022/06/30 11:56:47;;;;;;;9.17;2.90;;;45.80;39.60;;;;;;5009928;28;20457;-85
2022/06/30 11:59:13;;;;;;;3.57;2.60;;;45.60;38.70;;;;;;5005213;28;20436;-85
2022/06/30 12:01:39;;;;;;;4.13;2.67;;;45.70;38.90;;;;;;5009231;28;20437;-85
2022/06/30 12:04:15;;;;;;;5.07;3.20;;;45.60;38.70;;;;;;5007632;28;20508;-85
2022/06/30 12:06:41;;;;;;;3.30;2.63;;;45.60;39.30;;;;;;5009546;28;20459;-84
2022/06/30 12:09:07;;;;;;;6.50;2.40;;;45.40;38.80;;;;;;5010645;28;20894;-85
2022/06/30 12:11:35;;;;;;;7.37;2.93;;;45.30;39.00;;;;;;5010312;28;20186;-85
2022/06/30 12:14:01;;;;;;;7.80;2.57;;;45.00;38.80;;;;;;5007778;28;20258;-86
2022/06/30 12:16:26;;;;;;;7.07;2.43;;;44.10;36.50;;;;;;5004503;28;20465;-84
2022/06/30 12:18:52;;;;;;;8.20;2.40;;;43.80;35.00;;;;;;5003598;28;20218;-84
2022/06/30 12:21:17;;;;;;;3.43;2.03;;;44.00;36.20;;;;;;5009914;28;20193;-85
2022/06/30 12:23:45;;;;;;;4.63;1.93;;;44.10;37.40;;;;;;5010697;28;20206;-86
2022/06/30 12:26:11;;;;;;;5.30;2.30;;;44.10;37.80;;;;;;5010725;28;20211;-84
2022/06/30 12:29:12;;;;;;;8.10;2.00;;;43.60;37.20;;;;;;5010514;28;20444;-84
2022/06/30 12:31:38;;;;;;;7.60;2.83;;;43.70;37.00;;;;;;4989370;28;20425;-86
2022/06/30 12:34:04;;;;;;;5.80;1.80;;;43.10;35.50;;;;;;5024341;28;20525;-86
2022/06/30 12:36:31;;;;;;;5.40;2.40;;;43.10;36.60;;;;;;5005638;28;20757;-84
2022/06/30 12:38:57;;;;;;;4.17;1.67;;;43.10;36.80;;;;;;5019642;28;20599;-85
2022/06/30 12:41:24;;;;;;;5.30;2.00;;;42.80;36.20;;;;;;5004078;28;20411;-84
2022/06/30 12:43:51;;;;;;;2.53;1.60;;;42.90;38.00;;;;;;5006249;28;20569;-85
2022/06/30 12:46:18;;;;;;;4.23;2.13;;;42.70;37.40;;;;;;5009903;28;20449;-84
2022/06/30 12:48:47;;;;;;;3.03;1.87;;;42.50;37.20;;;;;;5008910;28;20476;-85
2022/06/30 12:51:15;;;;;;;7.53;2.17;;;42.50;38.00;;;;;;5003763;28;20432;-84
2022/06/30 12:53:41;;;;;;;2.03;1.57;;;42.40;37.10;;;;;;5008985;28;20439;-84
2022/06/30 12:56:17;;;;;;;4.23;2.13;;;42.30;37.10;;;;;;5021616;28;20476;-85
2022/06/30 12:58:49;;;;;;;4.83;2.07;;;42.40;37.50;;;;;;5007798;28;20528;-83
2022/06/30 13:01:25;;;;;;;3.93;1.97;;;42.30;37.40;;;;;;5008658;28;20442;-84
2022/06/30 13:03:52;;;;;;;3.50;1.83;;;42.20;37.70;;;;;;5003454;28;20492;-85